Time;durP1;ratioP1;P1;durP2;ratioP2;P2;SDS_P1;SDS_P2;PMS_P1;PMS_P2;Temp;Humidity;BMP_temperature;BMP_pressure;BME280_temperature;BME280_humidity;BME280_pressure;Samples;Min_cycle;Max_cycle;Signal;HPM_P1;HPM_P2
2022/08/31 00:04:01;;;;;;;4.65;2.50;;;;;;;16.15;100.00;100830.63;5075514;28;20070;-79
2022/08/31 00:06:31;;;;;;;2.47;2.22;;;;;;;16.15;100.00;100824.06;5057584;28;20461;-78
2022/08/31 00:08:57;;;;;;;7.53;2.88;;;;;;;16.16;100.00;100823.53;5074997;28;20031;-78
2022/08/31 00:11:29;;;;;;;2.95;2.63;;;;;;;16.17;100.00;100825.09;5073403;28;20032;-78
2022/08/31 00:13:56;;;;;;;4.95;2.50;;;;;;;16.19;100.00;100827.47;5075192;28;20025;-79
2022/08/31 00:16:22;;;;;;;3.85;2.55;;;;;;;16.22;100.00;100829.31;5073810;28;20021;-80
2022/08/31 00:18:51;;;;;;;4.50;2.88;;;;;;;16.25;100.00;100831.97;5074004;28;20036;-78
2022/08/31 00:21:17;;;;;;;4.72;2.88;;;;;;;16.28;100.00;100825.16;5074867;28;20042;-77
2022/08/31 00:23:42;;;;;;;5.13;2.33;;;;;;;16.30;100.00;100825.44;5074702;28;20120;-78
2022/08/31 00:26:08;;;;;;;4.40;2.83;;;;;;;16.32;100.00;100825.69;5073417;28;20115;-78
2022/08/31 00:28:33;;;;;;;4.35;2.50;;;;;;;16.36;100.00;100837.75;5074736;28;20028;-78
2022/08/31 00:30:59;;;;;;;4.05;2.75;;;;;;;16.39;100.00;100836.72;5074947;28;20389;-79
2022/08/31 00:33:24;;;;;;;3.88;2.20;;;;;;;16.43;100.00;100830.69;5073579;28;20059;-78
2022/08/31 00:35:49;;;;;;;2.85;2.22;;;;;;;16.47;100.00;100828.34;5074875;28;20031;-79
2022/08/31 00:38:15;;;;;;;6.07;2.53;;;;;;;16.49;100.00;100829.41;5073288;28;20385;-79
2022/08/31 00:40:43;;;;;;;6.00;2.88;;;;;;;16.52;100.00;100822.56;5074933;28;20082;-79
2022/08/31 00:43:08;;;;;;;4.63;2.42;;;;;;;16.54;100.00;100820.00;5073163;28;20029;-78
2022/08/31 00:45:34;;;;;;;5.20;2.97;;;;;;;16.61;100.00;100820.78;5073562;28;20106;-78
2022/08/31 00:47:59;;;;;;;10.45;3.40;;;;;;;16.57;100.00;100818.16;5073031;28;20385;-79
2022/08/31 00:50:25;;;;;;;2.53;2.30;;;;;;;16.58;100.00;100822.63;5073795;28;20039;-80
2022/08/31 00:52:54;;;;;;;4.65;2.83;;;;;;;16.57;100.00;100832.59;5073464;28;20420;-79
2022/08/31 00:55:23;;;;;;;4.20;2.88;;;;;;;16.59;100.00;100835.75;5056967;28;20478;-78
2022/08/31 00:57:50;;;;;;;3.13;2.35;;;;;;;16.61;100.00;100827.34;5073440;28;20043;-78
2022/08/31 01:00:23;;;;;;;3.55;2.63;;;;;;;16.64;100.00;100832.09;5074580;28;20480;-80
2022/08/31 01:02:49;;;;;;;3.22;2.42;;;;;;;16.67;100.00;100830.22;5072701;28;20081;-79
2022/08/31 01:05:16;;;;;;;3.70;3.05;;;;;;;16.69;100.00;100831.31;5070495;28;20032;-78
2022/08/31 01:07:43;;;;;;;3.33;2.95;;;;;;;16.71;100.00;100830.75;5070746;28;20059;-78
2022/08/31 01:10:09;;;;;;;4.75;2.72;;;;;;;16.73;100.00;100831.03;5070804;28;20028;-78
2022/08/31 01:12:34;;;;;;;6.80;3.17;;;;;;;16.73;100.00;100828.94;5053803;28;20036;-78
2022/08/31 01:15:03;;;;;;;3.50;2.92;;;;;;;16.68;100.00;100823.94;5071040;28;20034;-79
2022/08/31 01:17:31;;;;;;;8.48;3.05;;;;;;;16.68;100.00;100820.28;5087967;28;20477;-78
2022/08/31 01:20:03;;;;;;;6.07;2.50;;;;;;;16.68;100.00;100820.28;5070825;28;20454;-78
2022/08/31 01:22:39;;;;;;;4.88;2.88;;;;;;;16.69;100.00;100819.75;5071002;28;20385;-78
2022/08/31 01:25:05;;;;;;;5.10;2.80;;;;;;;16.70;100.00;100824.19;5071515;28;20039;-77
2022/08/31 01:27:34;;;;;;;6.60;3.20;;;;;;;16.70;100.00;100811.88;5072837;28;20032;-77
2022/08/31 01:30:09;;;;;;;6.72;2.78;;;;;;;16.67;100.00;100813.72;5071345;28;20503;-79
2022/08/31 01:32:35;;;;;;;7.80;3.67;;;;;;;16.68;100.00;100817.38;5073964;28;20032;-79
2022/08/31 01:35:00;;;;;;;6.10;2.60;;;;;;;16.66;100.00;100815.00;5074050;28;20029;-79
2022/08/31 01:37:26;;;;;;;10.05;3.22;;;;;;;16.64;100.00;100819.75;5072545;28;20020;-79
2022/08/31 01:39:51;;;;;;;4.38;3.28;;;;;;;16.62;100.00;100823.16;5089412;28;20474;-78
2022/08/31 01:42:17;;;;;;;4.47;3.00;;;;;;;16.62;100.00;100814.50;5072668;28;20020;-77
2022/08/31 01:44:43;;;;;;;4.07;2.97;;;;;;;16.61;100.00;100812.91;5055496;28;20033;-78
2022/08/31 01:47:08;;;;;;;4.53;3.58;;;;;;;16.60;100.00;100816.34;5088953;28;20358;-78
2022/08/31 01:49:34;;;;;;;6.50;3.90;;;;;;;16.53;100.00;100815.53;5072303;28;20115;-78
2022/08/31 01:51:59;;;;;;;4.82;2.90;;;;;;;16.49;100.00;100822.84;5074050;28;20029;-78
2022/08/31 01:54:26;;;;;;;10.57;3.78;;;;;;;16.47;100.00;100816.78;5072446;28;20028;-77
2022/08/31 01:56:52;;;;;;;7.22;3.67;;;;;;;16.44;100.00;100824.41;5072370;28;20473;-76
2022/08/31 01:59:19;;;;;;;4.00;2.90;;;;;;;16.44;100.00;100817.84;5074011;28;20023;-76
2022/08/31 02:01:47;;;;;;;4.78;2.97;;;;;;;16.45;100.00;100822.31;5073569;28;20481;-77
2022/08/31 02:04:14;;;;;;;7.78;3.85;;;;;;;16.45;100.00;100819.44;5073903;28;20028;-76
2022/08/31 02:06:42;;;;;;;5.00;3.28;;;;;;;16.44;100.00;100821.53;5073516;28;20024;-79
2022/08/31 02:09:07;;;;;;;5.85;3.60;;;;;;;16.44;100.00;100820.72;5073462;28;20458;-79
2022/08/31 02:11:33;;;;;;;7.00;3.20;;;;;;;16.43;100.00;100822.81;5073853;28;20027;-79
2022/08/31 02:13:58;;;;;;;4.03;3.15;;;;;;;16.40;100.00;100818.09;5072463;28;20506;-78
2022/08/31 02:16:24;;;;;;;4.93;3.17;;;;;;;16.39;100.00;100815.75;5072313;28;20138;-79
2022/08/31 02:18:50;;;;;;;5.70;3.58;;;;;;;16.38;100.00;100819.94;5073325;28;20461;-79
2022/08/31 02:21:15;;;;;;;8.05;4.50;;;;;;;16.39;100.00;100816.53;5072542;28;20025;-78
2022/08/31 02:23:41;;;;;;;3.88;2.58;;;;;;;16.35;100.00;100815.97;5072272;28;20024;-79
2022/08/31 02:26:07;;;;;;;5.15;3.33;;;;;;;16.33;100.00;100817.81;5073508;28;20021;-79
2022/08/31 02:28:32;;;;;;;4.82;3.15;;;;;;;16.28;100.00;100813.63;5073187;28;20598;-78
2022/08/31 02:30:58;;;;;;;5.65;3.22;;;;;;;16.25;100.00;100808.09;5073223;28;20024;-78
2022/08/31 02:33:26;;;;;;;5.28;3.30;;;;;;;16.22;100.00;100809.91;5072327;28;20017;-79
2022/08/31 02:35:52;;;;;;;8.65;3.45;;;;;;;16.19;100.00;100815.94;5073268;28;20025;-78
2022/08/31 02:38:17;;;;;;;5.03;3.00;;;;;;;16.15;100.00;100815.41;5072484;28;20025;-79
2022/08/31 02:40:43;;;;;;;5.90;3.08;;;;;;;16.11;100.00;100818.53;5071884;28;20024;-79
2022/08/31 02:43:10;;;;;;;5.70;3.40;;;;;;;16.11;100.00;100809.88;5071799;28;20032;-78
2022/08/31 02:45:36;;;;;;;8.60;4.05;;;;;;;16.10;100.00;100809.13;5071321;28;20545;-78
2022/08/31 02:48:04;;;;;;;9.23;5.03;;;;;;;16.10;100.00;100814.09;5072000;28;20489;-79
2022/08/31 02:50:29;;;;;;;4.70;3.03;;;;;;;16.08;100.00;100814.59;5072861;28;20028;-79
2022/08/31 02:52:55;;;;;;;5.68;3.05;;;;;;;16.06;100.00;100817.22;5054970;28;20043;-78
2022/08/31 02:55:22;;;;;;;5.82;3.58;;;;;;;16.05;100.00;100809.09;5073103;28;20021;-79
2022/08/31 02:57:49;;;;;;;4.15;3.10;;;;;;;16.05;100.00;100809.09;5071495;28;20108;-78
2022/08/31 03:00:14;;;;;;;4.57;2.80;;;;;;;16.03;100.00;100811.69;5055002;28;20021;-79
2022/08/31 03:02:41;;;;;;;10.23;3.50;;;;;;;16.03;100.00;100806.72;5071629;28;20020;-79
2022/08/31 03:05:06;;;;;;;4.18;2.97;;;;;;;16.00;100.00;100816.41;5072883;28;20055;-80
2022/08/31 03:07:33;;;;;;;8.07;3.63;;;;;;;16.00;100.00;100813.53;5072861;28;20021;-77
2022/08/31 03:09:59;;;;;;;3.67;3.20;;;;;;;15.99;100.00;100816.94;5074363;28;20027;-77
2022/08/31 03:12:25;;;;;;;6.82;3.65;;;;;;;15.99;100.00;100814.03;5074824;28;20473;-78
2022/08/31 03:14:50;;;;;;;8.00;3.30;;;;;;;15.99;100.00;100814.03;5076238;28;20027;-79
2022/08/31 03:17:16;;;;;;;6.90;4.07;;;;;;;15.99;100.00;100816.94;5076519;28;20016;-80
2022/08/31 03:19:41;;;;;;;5.65;3.75;;;;;;;15.97;100.00;100811.69;5076320;28;20028;-78
2022/08/31 03:22:06;;;;;;;8.85;3.40;;;;;;;16.00;100.00;100818.50;5076564;28;20488;-77
2022/08/31 03:24:32;;;;;;;5.57;3.55;;;;;;;15.98;100.00;100821.13;5076351;28;20021;-77
2022/08/31 03:26:57;;;;;;;6.57;3.63;;;;;;;15.98;100.00;100824.78;5075824;28;20462;-78
2022/08/31 03:29:23;;;;;;;8.15;3.63;;;;;;;15.96;100.00;100810.09;5076052;28;20031;-79
2022/08/31 03:31:48;;;;;;;4.75;2.95;;;;;;;15.90;100.00;100815.06;5074743;28;20496;-78
2022/08/31 03:34:13;;;;;;;7.15;3.88;;;;;;;15.89;100.00;100822.13;5076368;28;20016;-78
2022/08/31 03:36:39;;;;;;;7.65;3.75;;;;;;;15.87;100.00;100826.81;5074727;28;20020;-79
2022/08/31 03:39:04;;;;;;;12.20;3.92;;;;;;;15.84;100.00;100827.88;5075993;28;20024;-78
2022/08/31 03:41:30;;;;;;;7.90;3.55;;;;;;;15.82;100.00;100828.38;5075361;28;20059;-78
2022/08/31 03:43:55;;;;;;;9.63;3.90;;;;;;;15.83;100.00;100827.09;5074924;28;20044;-78
2022/08/31 03:46:21;;;;;;;6.60;3.78;;;;;;;15.80;100.00;100824.44;5075478;28;20045;-78
2022/08/31 03:48:46;;;;;;;6.45;3.95;;;;;;;15.81;100.00;100823.91;5075879;28;20024;-78
2022/08/31 03:51:13;;;;;;;5.07;3.95;;;;;;;15.79;100.00;100829.44;5074736;28;20029;-78
2022/08/31 03:53:39;;;;;;;9.82;3.47;;;;;;;15.81;100.00;100820.28;5074716;28;20038;-78
2022/08/31 03:56:07;;;;;;;4.88;3.83;;;;;;;15.82;100.00;100821.81;5075556;28;20025;-80
2022/08/31 03:58:33;;;;;;;6.18;3.80;;;;;;;15.81;100.00;100826.78;5076303;28;20024;-78
2022/08/31 04:00:58;;;;;;;8.50;3.70;;;;;;;15.82;100.00;100825.50;5075479;28;20020;-78
2022/08/31 04:03:24;;;;;;;4.30;3.72;;;;;;;15.83;100.00;100821.31;5074444;28;20107;-77
2022/08/31 04:05:49;;;;;;;9.00;3.58;;;;;;;15.85;100.00;100829.47;5075390;28;20025;-78
2022/08/31 04:08:16;;;;;;;6.10;3.95;;;;;;;15.85;100.00;100824.47;5075608;28;20055;-76
2022/08/31 04:10:44;;;;;;;4.90;3.85;;;;;;;15.87;100.00;100830.50;5075275;28;20059;-77
2022/08/31 04:13:09;;;;;;;9.25;4.38;;;;;;;15.89;100.00;100824.22;5074139;28;20036;-77
2022/08/31 04:15:36;;;;;;;8.25;4.50;;;;;;;15.94;100.00;100821.38;5073801;28;20032;-77
2022/08/31 04:18:01;;;;;;;10.18;4.07;;;;;;;15.95;100.00;100816.41;5073970;28;20040;-78
2022/08/31 04:20:26;;;;;;;5.60;3.90;;;;;;;15.97;100.00;100817.44;5057290;28;20024;-78
2022/08/31 04:22:52;;;;;;;5.75;3.75;;;;;;;16.04;100.00;100819.03;5073833;28;20059;-78
2022/08/31 04:25:17;;;;;;;5.63;3.85;;;;;;;16.06;100.00;100816.41;5074754;28;20060;-78
2022/08/31 04:27:42;;;;;;;5.30;3.38;;;;;;;16.09;100.00;100829.81;5073485;28;20028;-79
2022/08/31 04:30:08;;;;;;;5.55;4.15;;;;;;;16.10;100.00;100820.66;5074687;28;20032;-77
2022/08/31 04:32:34;;;;;;;8.52;5.20;;;;;;;16.12;100.00;100828.75;5074951;28;20457;-78
2022/08/31 04:35:02;;;;;;;7.22;4.03;;;;;;;16.15;100.00;100832.72;5073664;28;20040;-79
2022/08/31 04:37:29;;;;;;;10.73;3.38;;;;;;;16.21;100.00;100824.84;5073299;28;20515;-78
2022/08/31 04:40:00;;;;;;;5.97;3.72;;;;;;;16.26;100.00;100827.75;5073162;28;20043;-78
2022/08/31 04:42:27;;;;;;;4.38;3.88;;;;;;;16.31;100.00;100829.88;5073070;28;20036;-78
2022/08/31 04:44:54;;;;;;;6.47;4.30;;;;;;;16.32;100.00;100819.13;5056278;28;20063;-78
2022/08/31 04:47:20;;;;;;;8.35;4.00;;;;;;;16.41;100.00;100836.97;5072994;28;20531;-78
2022/08/31 04:49:47;;;;;;;5.72;4.18;;;;;;;16.45;100.00;100837.50;5074324;28;20051;-79
2022/08/31 04:52:14;;;;;;;9.68;4.07;;;;;;;16.48;100.00;100833.59;5074217;28;20036;-79
2022/08/31 04:54:41;;;;;;;5.95;3.92;;;;;;;16.52;100.00;100836.22;5043723;28;20044;-78
2022/08/31 04:57:08;;;;;;;7.35;4.07;;;;;;;16.59;100.00;100832.84;5074377;28;20433;-79
2022/08/31 04:59:35;;;;;;;6.47;4.35;;;;;;;16.65;100.00;100835.75;5074553;28;20028;-79
2022/08/31 05:02:04;;;;;;;9.00;4.47;;;;;;;16.71;100.00;100845.97;5039640;28;20085;-80
2022/08/31 05:04:32;;;;;;;6.85;3.83;;;;;;;16.78;100.00;100842.59;5074231;28;20039;-79
2022/08/31 05:06:58;;;;;;;8.55;4.22;;;;;;;16.85;100.00;100844.94;5072582;28;20028;-79
2022/08/31 05:09:24;;;;;;;11.43;5.22;;;;;;;16.93;100.00;100843.13;5056034;28;20439;-78
2022/08/31 05:11:51;;;;;;;6.88;4.07;;;;;;;16.95;100.00;100849.13;5072872;28;20040;-78
2022/08/31 05:14:20;;;;;;;6.55;4.22;;;;;;;16.97;100.00;100849.41;5073091;28;20033;-77
2022/08/31 05:16:47;;;;;;;10.18;4.82;;;;;;;17.05;100.00;100848.88;5072561;28;20036;-77
2022/08/31 05:19:13;;;;;;;9.18;4.60;;;;;;;17.14;100.00;100851.53;5073808;28;20240;-74
2022/08/31 05:21:40;;;;;;;6.88;4.63;;;;;;;17.30;100.00;100859.38;5073056;28;20033;-77
2022/08/31 05:24:08;;;;;;;9.55;5.00;;;;;;;17.43;100.00;100862.53;5072516;28;20036;-76
2022/08/31 05:26:39;;;;;;;6.72;4.50;;;;;;;17.53;100.00;100869.63;5073579;28;20162;-77
2022/08/31 05:29:06;;;;;;;5.30;4.57;;;;;;;17.51;100.00;100866.47;5072741;28;20074;-75
2022/08/31 05:31:36;;;;;;;7.60;4.90;;;;;;;17.56;100.00;100867.78;5055884;28;20028;-76
2022/08/31 05:34:02;;;;;;;7.63;4.82;;;;;;;17.64;100.00;100869.59;5071840;28;20051;-76
2022/08/31 05:36:28;;;;;;;6.72;4.90;;;;;;;17.70;100.00;100873.25;5073303;28;20020;-71
2022/08/31 05:38:53;;;;;;;8.60;4.97;;;;;;;17.71;100.00;100874.84;5073718;28;20484;-71
2022/08/31 05:41:20;;;;;;;6.82;4.32;;;;;;;17.75;100.00;100881.13;5073000;28;20020;-71
2022/08/31 05:43:45;;;;;;;7.97;4.70;;;;;;;17.79;100.00;100886.63;5072996;28;20035;-72
2022/08/31 05:46:13;;;;;;;6.35;4.43;;;;;;;17.79;100.00;100892.41;5073139;28;20037;-72
2022/08/31 05:48:38;;;;;;;9.32;5.28;;;;;;;17.90;100.00;100897.38;5073451;28;20021;-72
2022/08/31 05:51:06;;;;;;;8.90;5.15;;;;;;;18.02;100.00;100893.16;5071905;28;20040;-72
2022/08/31 05:53:32;;;;;;;8.85;5.50;;;;;;;18.02;100.00;100896.84;5073552;28;20024;-72
2022/08/31 05:56:09;;;;;;;11.32;5.32;;;;;;;17.99;100.00;100897.88;5073605;28;20351;-71
2022/08/31 05:58:36;;;;;;;15.27;5.68;;;;;;;18.03;100.00;100909.97;5073203;28;20066;-71
2022/08/31 06:01:03;;;;;;;15.23;5.88;;;;;;;18.11;100.00;100902.31;5073280;28;20493;-72
2022/08/31 06:03:29;;;;;;;10.90;5.60;;;;;;;18.06;100.00;100911.03;5073125;28;20035;-72
2022/08/31 06:05:54;;;;;;;12.57;6.00;;;;;;;18.09;100.00;100909.94;5073345;28;20025;-72
2022/08/31 06:08:20;;;;;;;88.80;15.57;;;;;;;18.17;100.00;100908.88;5073235;28;20020;-72
2022/08/31 06:10:47;;;;;;;23.30;6.68;;;;;;;18.22;100.00;100910.97;5073084;28;20354;-75
2022/08/31 06:13:15;;;;;;;59.65;9.70;;;;;;;18.24;100.00;100913.31;5073524;28;20021;-76
2022/08/31 06:15:41;;;;;;;25.50;6.70;;;;;;;18.35;100.00;100916.19;5073397;28;20465;-74
2022/08/31 06:18:06;;;;;;;10.55;4.30;;;;;;;18.42;100.00;100930.13;5073275;28;20047;-74
2022/08/31 06:20:35;;;;;;;9.95;4.10;;;;;;;18.39;100.00;100922.50;5071939;28;20070;-74
2022/08/31 06:23:03;;;;;;;11.13;4.40;;;;;;;18.60;100.00;100925.81;5088896;28;20052;-73
2022/08/31 06:25:28;;;;;;;13.23;4.93;;;;;;;18.63;100.00;100934.22;5072177;28;20055;-74
2022/08/31 06:27:55;;;;;;;8.18;4.05;;;;;;;18.69;100.00;100937.88;5071960;28;20060;-74
2022/08/31 06:30:25;;;;;;;6.05;3.90;;;;;;;18.58;100.00;100937.13;5071902;28;20027;-74
2022/08/31 06:32:51;;;;;;;6.85;3.95;;;;;;;18.50;100.00;100941.91;5072878;28;20082;-74
2022/08/31 06:35:16;;;;;;;10.63;4.47;;;;;;;18.60;100.00;100940.28;5072047;28;20028;-73
2022/08/31 06:37:42;;;;;;;7.63;4.60;;;;;;;18.64;100.00;100946.59;5071560;28;20469;-73
2022/08/31 06:40:08;;;;;;;9.63;3.95;;;;;;;18.63;100.00;100942.91;5074182;28;20105;-76
2022/08/31 06:42:33;;;;;;;7.28;3.85;;;;;;;18.75;100.00;100939.94;5056241;28;20024;-77
2022/08/31 06:44:58;;;;;;;14.57;4.82;;;;;;;18.63;100.00;100942.91;5074861;28;20052;-77
2022/08/31 06:47:24;;;;;;;9.52;4.13;;;;;;;18.61;100.00;100941.88;5078310;28;20035;-81
2022/08/31 06:49:50;;;;;;;10.27;4.13;;;;;;;18.55;100.00;100941.88;5078448;28;20048;-76
2022/08/31 06:52:16;;;;;;;7.22;3.80;;;;;;;18.47;100.00;100940.88;5079061;28;20105;-77
2022/08/31 06:54:41;;;;;;;5.53;3.90;;;;;;;18.49;100.00;100946.91;5079271;28;20031;-80
2022/08/31 06:57:07;;;;;;;5.60;4.13;;;;;;;18.42;100.00;100953.28;5078205;28;20028;-77
2022/08/31 06:59:32;;;;;;;6.00;4.07;;;;;;;18.31;100.00;100953.31;5077342;28;20453;-77
2022/08/31 07:01:59;;;;;;;12.88;4.28;;;;;;;18.25;100.00;100949.63;5076119;28;20100;-77
2022/08/31 07:04:25;;;;;;;30.15;6.65;;;;;;;18.16;100.00;100952.81;5078128;28;20519;-76
2022/08/31 07:06:50;;;;;;;154.52;24.00;;;;;;;18.08;100.00;100952.53;5076772;28;20032;-76
2022/08/31 07:09:17;;;;;;;17.85;4.57;;;;;;;18.01;100.00;100946.53;5077905;28;20384;-76
2022/08/31 07:11:48;;;;;;;61.40;11.35;;;;;;;17.89;100.00;100942.88;5058698;28;20032;-76
2022/08/31 07:14:16;;;;;;;10.32;5.78;;;;;;;17.89;100.00;100956.53;5058744;28;20032;-76
2022/08/31 07:16:43;;;;;;;5.05;4.43;;;;;;;17.92;100.00;100949.72;5077680;28;20025;-75
2022/08/31 07:19:09;;;;;;;6.63;4.97;;;;;;;17.96;100.00;100950.22;5076838;28;20165;-77
2022/08/31 07:21:39;;;;;;;5.97;4.82;;;;;;;18.00;100.00;100954.41;5075445;28;20456;-75
2022/08/31 07:24:05;;;;;;;10.95;5.07;;;;;;;18.09;100.00;100956.22;5075112;28;20024;-74
2022/08/31 07:26:42;;;;;;;5.95;4.65;;;;;;;18.08;100.00;100963.34;5057875;28;20023;-77
2022/08/31 07:29:09;;;;;;;11.27;4.97;;;;;;;17.99;100.00;100960.72;5075827;28;20028;-76
2022/08/31 07:31:47;;;;;;;8.07;4.40;;;;;;;17.95;100.00;100966.78;5074457;28;20384;-75
2022/08/31 07:34:14;;;;;;;13.07;5.28;;;;;;;17.98;100.00;100962.06;5059356;28;20465;-77
2022/08/31 07:42:10;;;;;;;12.48;4.40;;;;;;;17.98;100.00;100971.50;5076086;28;20047;-78
2022/08/31 07:44:36;;;;;;;20.25;5.18;;;;;;;17.98;100.00;100976.53;5057499;28;20047;-78
2022/08/31 07:47:02;;;;;;;7.93;4.13;;;;;;;18.05;100.00;100970.97;5075463;28;20020;-76
2022/08/31 07:49:27;;;;;;;26.85;5.30;;;;;;;18.19;100.00;100975.66;5075154;28;20040;-77
2022/08/31 07:51:54;;;;;;;16.50;5.25;;;;;;;18.31;100.00;100978.56;5075626;28;20020;-75
2022/08/31 07:54:22;;;;;;;7.30;3.85;;;;;;;18.10;100.00;100973.06;5074467;28;20051;-77
2022/08/31 07:56:49;;;;;;;5.32;4.10;;;;;;;18.23;100.00;100966.72;5074947;28;20029;-78
2022/08/31 07:59:16;;;;;;;5.32;3.72;;;;;;;18.19;100.00;100974.88;5075495;28;20071;-76
2022/08/31 08:01:42;;;;;;;5.63;3.28;;;;;;;18.02;100.00;100968.34;5074198;28;20141;-75
2022/08/31 08:04:07;;;;;;;6.65;3.55;;;;;;;18.00;100.00;100979.66;5073861;28;20428;-76
2022/08/31 08:06:33;;;;;;;6.28;3.65;;;;;;;18.00;100.00;100977.56;5075546;28;20028;-75
2022/08/31 08:09:04;;;;;;;4.90;4.28;;;;;;;18.05;100.00;100982.53;5075160;28;20024;-77
2022/08/31 08:11:31;;;;;;;9.48;3.55;;;;;;;18.17;100.00;100975.44;5075326;28;20362;-75
2022/08/31 08:13:57;;;;;;;5.13;3.53;;;;;;;18.32;100.00;100985.94;5075337;28;20036;-76
2022/08/31 08:16:23;;;;;;;5.40;3.45;;;;;;;18.54;100.00;100985.84;5074718;28;20066;-75
2022/08/31 08:18:48;;;;;;;5.93;4.18;;;;;;;18.68;100.00;100979.72;5075149;28;20028;-74
2022/08/31 08:21:14;;;;;;;7.60;3.97;;;;;;;18.74;100.00;100978.91;5073302;28;20465;-74
2022/08/31 08:23:39;;;;;;;6.47;3.63;;;;;;;18.88;100.00;100995.94;5072507;28;20052;-74
2022/08/31 08:26:10;;;;;;;4.50;3.05;;;;;;;18.91;100.00;100994.09;5071114;28;20427;-75
2022/08/31 08:28:35;;;;;;;4.33;3.17;;;;;;;19.03;100.00;100987.69;5071015;28;20372;-75
2022/08/31 08:31:01;;;;;;;8.63;3.40;;;;;;;19.19;100.00;100994.75;5072000;28;20537;-74
2022/08/31 08:33:27;;;;;;;8.05;3.60;;;;;;;19.21;100.00;100991.31;5072106;28;20481;-74
2022/08/31 08:36:01;;;;;;;4.10;3.13;;;;;;;19.04;100.00;100997.97;5071971;28;20098;-74
2022/08/31 08:38:31;;;;;;;3.40;3.10;;;;;;;19.15;100.00;101005.06;5072399;28;20021;-74
2022/08/31 08:41:03;;;;;;;9.18;4.20;;;;;;;19.23;100.00;101006.03;5071156;28;20027;-75
2022/08/31 08:43:34;;;;;;;12.70;4.43;;;;;;;19.25;100.00;101000.50;5070781;28;20028;-74
2022/08/31 08:46:01;;;;;;;12.20;3.63;;;;;;;19.12;100.00;101003.97;5071763;28;20475;-73
2022/08/31 08:48:31;;;;;;;6.90;3.25;;;;;;;19.24;100.00;100998.94;5070878;28;20016;-74
2022/08/31 08:50:58;;;;;;;6.10;3.67;;;;;;;19.32;100.00;101006.50;5070659;28;20012;-73
2022/08/31 08:53:24;;;;;;;5.05;3.00;;;;;;;19.19;100.00;101002.66;5071207;28;20031;-74
2022/08/31 08:55:50;;;;;;;11.15;3.95;;;;;;;19.31;100.00;101007.06;5056214;28;20062;-74
2022/08/31 08:58:18;;;;;;;7.22;3.55;;;;;;;19.43;100.00;101012.22;5073993;28;20047;-74
2022/08/31 09:00:48;;;;;;;39.95;6.80;;;;;;;19.53;100.00;101012.69;5073906;28;20020;-73
2022/08/31 09:03:26;;;;;;;6.70;3.28;;;;;;;19.57;100.00;101009.47;5072775;28;20477;-73
2022/08/31 09:06:09;;;;;;;13.80;4.35;;;;;;;19.76;100.00;101013.28;5072623;28;20017;-75
2022/08/31 09:08:40;;;;;;;9.80;3.30;;;;;;;19.84;99.80;101006.38;5072970;28;20047;-74
2022/08/31 09:11:21;;;;;;;3.55;2.42;;;;;;;19.69;97.46;101010.97;5072493;28;20380;-75
2022/08/31 09:14:06;;;;;;;5.47;2.47;;;;;;;19.65;97.17;101017.06;5074050;28;20029;-74
2022/08/31 09:17:00;;;;;;;5.05;2.95;;;;;;;19.67;98.91;101005.72;5072533;28;20076;-74
2022/08/31 09:19:25;;;;;;;5.55;2.53;;;;;;;19.67;98.83;101014.41;5072619;28;20032;-74
2022/08/31 09:21:54;;;;;;;4.20;2.83;;;;;;;19.60;99.07;101009.22;5072353;28;20519;-74
2022/08/31 09:24:22;;;;;;;5.15;2.70;;;;;;;19.64;99.26;101011.81;5073817;28;20028;-74
2022/08/31 09:27:37;;;;;;;6.68;2.90;;;;;;;19.69;98.75;101010.97;5055576;28;20032;-74
2022/08/31 09:29:59;;;;;;;8.68;2.70;;;;;;;19.68;98.38;101004.38;5070429;28;20107;-74
2022/08/31 09:32:30;;;;;;;7.68;3.00;;;;;;;19.77;98.07;101001.13;5073740;28;20028;-73
2022/08/31 09:35:00;;;;;;;5.68;2.65;;;;;;;19.93;96.90;100997.34;5073409;28;20128;-75
2022/08/31 09:37:29;;;;;;;18.67;3.92;;;;;;;20.10;95.31;100997.19;5073445;28;20016;-73
2022/08/31 09:39:55;;;;;;;12.00;3.97;;;;;;;20.27;94.62;100996.97;5073282;28;20052;-74
2022/08/31 09:42:27;;;;;;;8.07;3.33;;;;;;;20.44;92.16;100996.81;5073377;28;20055;-75
2022/08/31 09:44:54;;;;;;;10.80;2.40;;;;;;;20.69;91.18;101007.06;5072012;28;20092;-74
2022/08/31 09:47:47;;;;;;;5.18;2.13;;;;;;;21.03;89.75;100998.72;5073189;28;20021;-75
2022/08/31 09:50:23;;;;;;;4.20;2.70;;;;;;;21.35;87.67;100992.94;5072014;28;20381;-73
2022/08/31 09:55:32;;;;;;;7.00;2.35;;;;;;;21.80;81.47;100990.09;5073455;28;20039;-76
2022/08/31 09:58:02;;;;;;;7.57;3.15;;;;;;;21.97;79.73;100988.47;5073254;28;20444;-73
2022/08/31 10:00:38;;;;;;;3.47;1.75;;;;;;;21.99;76.15;100996.63;5071904;28;20407;-75
2022/08/31 10:03:27;;;;;;;3.90;1.60;;;;;;;22.49;76.26;100990.66;5071939;28;20028;-74
2022/08/31 10:05:53;;;;;;;3.15;1.88;;;;;;;22.96;74.75;100989.19;5073155;28;20024;-73
2022/08/31 10:08:59;;;;;;;6.47;1.95;;;;;;;23.39;69.11;100998.25;5072979;28;20466;-74
2022/08/31 10:11:28;;;;;;;6.55;2.10;;;;;;;23.60;66.46;100995.38;5069959;28;20043;-74
2022/08/31 10:14:15;;;;;;;5.85;1.65;;;;;;;23.88;64.68;100992.53;5071716;28;20070;-73
2022/08/31 10:16:50;;;;;;;4.38;1.60;;;;;;;24.19;63.49;100985.59;5071677;28;20021;-74
2022/08/31 10:19:29;;;;;;;7.45;1.92;;;;;;;24.62;64.17;100984.91;5074237;28;20048;-74
2022/08/31 10:22:04;;;;;;;5.40;1.73;;;;;;;25.12;62.96;100978.91;5076073;28;20082;-74
2022/08/31 10:24:33;;;;;;;3.55;1.33;;;;;;;25.09;57.95;100980.84;5075948;28;20035;-73
2022/08/31 10:27:01;;;;;;;4.82;1.55;;;;;;;25.15;56.88;100984.38;5077296;28;20036;-73
2022/08/31 10:29:41;;;;;;;3.00;1.33;;;;;;;25.19;57.49;100975.22;5076947;28;20028;-74
2022/08/31 10:32:22;;;;;;;3.55;1.50;;;;;;;25.31;58.11;100976.44;5075557;28;20082;-74
2022/08/31 10:35:04;;;;;;;2.70;1.30;;;;;;;25.42;57.35;100979.78;5075651;28;20021;-74
2022/08/31 10:37:57;;;;;;;4.35;1.30;;;;;;;25.33;51.67;100982.50;5076679;28;20457;-74
2022/08/31 10:40:28;;;;;;;4.35;0.90;;;;;;;25.31;50.26;100982.28;5076649;28;20051;-73
2022/08/31 10:43:08;;;;;;;5.50;2.20;;;;;;;25.33;51.68;100977.41;5076644;28;20028;-74
2022/08/31 10:45:38;;;;;;;1.23;0.82;;;;;;;25.38;52.64;100973.53;5075048;28;20432;-75
2022/08/31 10:48:05;;;;;;;4.03;1.97;;;;;;;25.11;49.47;100981.06;5075406;28;20107;-74
2022/08/31 10:50:39;;;;;;;6.03;1.45;;;;;;;25.16;51.80;100962.56;5076477;28;20024;-74
2022/08/31 10:53:37;;;;;;;1.65;1.05;;;;;;;25.34;50.61;100961.41;5076030;28;20028;-75
2022/08/31 10:56:17;;;;;;;2.25;1.00;;;;;;;25.13;48.68;100971.72;5097377;28;20033;-74
2022/08/31 10:58:48;;;;;;;14.57;2.15;;;;;;;24.87;49.41;100972.78;5075301;28;20024;-74
2022/08/31 11:01:14;;;;;;;;;;;;;;;24.74;49.89;100969.97;5076638;28;20029;-74
2022/08/31 11:03:51;;;;;;;8.57;1.92;;;;;;;24.48;50.91;100965.16;5076498;28;19912;-73
2022/08/31 11:06:31;;;;;;;5.53;1.88;;;;;;;24.31;52.29;100948.09;5074960;28;20055;-72
2022/08/31 11:09:05;;;;;;;7.47;1.90;;;;;;;24.18;53.19;100954.03;5076282;28;20029;-73
2022/08/31 11:11:37;;;;;;;7.32;1.80;;;;;;;23.95;54.05;100953.06;5075091;28;20104;-73
2022/08/31 11:14:06;;;;;;;7.03;2.10;;;;;;;23.83;54.70;100940.13;5076234;28;20024;-74
2022/08/31 11:16:44;;;;;;;4.53;1.63;;;;;;;23.53;56.25;100955.19;5076170;28;20028;-74
2022/08/31 11:19:12;;;;;;;19.60;3.67;;;;;;;23.29;58.20;100950.50;5076012;28;20024;-74
2022/08/31 11:21:57;;;;;;;6.57;1.88;;;;;;;23.13;59.15;100945.84;5076082;28;20103;-74
2022/08/31 11:24:45;;;;;;;8.15;1.65;;;;;;;23.08;59.76;100947.53;5076342;28;20047;-73
2022/08/31 11:27:24;;;;;;;11.70;2.55;;;;;;;22.98;61.24;100946.44;5075947;28;20111;-73
2022/08/31 11:30:02;;;;;;;8.43;3.35;;;;;;;22.87;61.20;100947.47;5073690;28;20082;-74
2022/08/31 11:32:44;;;;;;;6.45;2.33;;;;;;;22.82;59.64;100936.69;5074341;28;20040;-73
2022/08/31 11:35:11;;;;;;;7.72;1.80;;;;;;;22.85;58.45;100940.63;5075458;28;20063;-75